This is the latest recevied weather packets stored in our database for station/object XE1GMR. If no packets are shown the sender has not sent any weather packets the latest 10 day(s).
| Time | Temp. | Humidity | Pressure | Rain* | Wind** | Luminosity | Snow |
|---|---|---|---|---|---|---|---|
| 1777826917 | 25° C | 52% | 1125 hPa | 0 mm | - | 499 W/m² | - |
| 1777826614 | 25.56° C | 51% | 1124.9 hPa | 0 mm | - | 792 W/m² | - |
| 1777826310 | 24.44° C | 53% | 1125.2 hPa | 0 mm | - | 772 W/m² | - |
| 1777826008 | 25° C | 53% | 1125.1 hPa | 0 mm | - | 792 W/m² | - |
| 1777825705 | 24.44° C | 55% | 1125.1 hPa | 0 mm | - | 775 W/m² | - |
| 1777825403 | 23.89° C | 53% | 1125.2 hPa | 0 mm | - | 777 W/m² | - |
| 1777825099 | 23.89° C | 56% | 1125.3 hPa | 0 mm | - | 753 W/m² | - |
| 1777824795 | 23.89° C | 55% | 1125.2 hPa | 0 mm | - | 747 W/m² | - |
| 1777824492 | 23.33° C | 57% | 1125.4 hPa | 0 mm | - | 749 W/m² | - |
| 1777824188 | 23.33° C | 57% | 1125.5 hPa | 0 mm | - | 713 W/m² | - |
| 1777823884 | 22.78° C | 58% | 1125.5 hPa | 0 mm | - | 737 W/m² | - |
| 1777823582 | 22.22° C | 59% | 1125.5 hPa | 0 mm | - | 624 W/m² | - |
| 1777823279 | 22.22° C | 59% | 1125.4 hPa | 0 mm | - | 550 W/m² | - |
| 1777822976 | 22.22° C | 59% | 1125.5 hPa | 0 mm | - | 427 W/m² | - |
| 1777822674 | 21.67° C | 61% | 1125.2 hPa | 0 mm | - | 665 W/m² | - |
| 1777822372 | 21.67° C | 62% | 1125.3 hPa | 0 mm | - | 643 W/m² | - |
| 1777822069 | 21.67° C | 62% | 1125.4 hPa | 0 mm | - | 613 W/m² | - |
| 1777821767 | 21.67° C | 62% | 1125.2 hPa | 0 mm | - | 638 W/m² | - |
| 1777821464 | 21.67° C | 62% | 1125.3 hPa | 0 mm | - | 542 W/m² | - |
| 1777821162 | 20.56° C | 65% | 1125.3 hPa | 0 mm | - | 612 W/m² | - |
| 1777820858 | 20° C | 66% | 1125.2 hPa | 0 mm | - | 415 W/m² | - |
| 1777820554 | 19.44° C | 68% | 1125 hPa | 0 mm | - | 382 W/m² | - |
| 1777820251 | 19.44° C | 69% | 1125.2 hPa | 0 mm | - | 180 W/m² | - |
| 1777819949 | 18.89° C | 69% | 1124.9 hPa | 0 mm | - | 143 W/m² | - |
| 1777819646 | 18.89° C | 70% | 1124.9 hPa | 0 mm | - | 108 W/m² | - |
* Rain latest hour (hover to see other rain measurements)
** Current wind speed in m/s (hover to see current wind gust speed)